createdAt,value
2023-04-10T00:01:01.755Z,36.65
2023-04-10T00:06:07.464Z,36.17
2023-04-10T00:11:11.255Z,35.97
2023-04-10T00:16:14.409Z,36.40
2023-04-10T00:21:18.752Z,35.85
2023-04-10T00:26:23.816Z,36.85
2023-04-10T00:31:26.842Z,37.05
2023-04-10T00:36:31.597Z,35.78
2023-04-10T00:41:34.878Z,35.75
2023-04-10T00:46:39.301Z,36.20
2023-04-10T00:51:43.729Z,36.17
2023-04-10T00:56:47.880Z,35.63
2023-04-10T01:01:51.229Z,36.05
2023-04-10T01:07:00.996Z,35.65
2023-04-10T01:12:12.371Z,36.10
2023-04-10T01:17:22.861Z,35.80
2023-04-10T01:22:29.790Z,35.55
2023-04-10T01:27:45.200Z,36.55
2023-04-10T01:32:51.756Z,36.35
2023-04-10T01:37:56.096Z,35.40
2023-04-10T01:43:01.337Z,36.30
2023-04-10T01:48:18.731Z,35.67
2023-04-10T01:53:21.960Z,36.33
2023-04-10T01:58:25.525Z,35.78
2023-04-10T02:03:33.437Z,35.72
2023-04-10T02:08:40.714Z,35.50
2023-04-10T02:13:44.134Z,36.85
2023-04-10T02:18:50.585Z,36.13
2023-04-10T02:23:53.830Z,35.83
2023-04-10T02:28:56.849Z,35.78
2023-04-10T02:34:01.135Z,35.28
2023-04-10T02:39:04.681Z,35.55
2023-04-10T02:44:07.769Z,35.63
2023-04-10T02:49:12.025Z,36.00
2023-04-10T02:54:14.969Z,34.88
2023-04-10T02:59:19.092Z,35.53
2023-04-10T03:04:23.383Z,35.60
2023-04-10T03:09:26.364Z,35.42
2023-04-10T03:14:30.448Z,35.63
2023-04-10T03:19:34.651Z,35.25
2023-04-10T03:24:38.001Z,35.42
2023-04-10T03:29:41.090Z,34.88
2023-04-10T03:34:45.337Z,35.30
2023-04-10T03:39:48.441Z,35.60
2023-04-10T03:44:51.281Z,34.85
2023-04-10T03:49:57.688Z,35.47
2023-04-10T03:55:00.734Z,35.42
2023-04-10T04:00:05.724Z,35.20
2023-04-10T04:05:27.629Z,35.58
2023-04-10T04:10:59.773Z,35.28
2023-04-10T04:16:12.679Z,36.30
2023-04-10T04:21:23.457Z,35.60
2023-04-10T04:26:43.682Z,35.45
2023-04-10T04:32:15.042Z,35.47
2023-04-10T04:37:40.805Z,35.45
2023-04-10T04:43:19.080Z,34.80
2023-04-10T04:48:40.573Z,35.40
2023-04-10T04:54:23.383Z,35.55
2023-04-10T04:59:42.278Z,38.25
2023-04-10T05:05:11.131Z,36.13
2023-04-10T05:10:24.446Z,35.55
2023-04-10T05:15:48.009Z,34.88
2023-04-10T05:21:29.239Z,34.67
2023-04-10T05:27:03.006Z,35.58
2023-04-10T05:32:17.930Z,35.47
2023-04-10T05:37:36.700Z,42.95
2023-04-10T05:43:13.574Z,51.28
2023-04-10T05:48:38.681Z,41.05
2023-04-10T05:54:13.436Z,38.67
2023-04-10T05:59:41.478Z,37.78
2023-04-10T06:04:50.148Z,36.53
2023-04-10T06:09:53.392Z,36.22
2023-04-10T06:14:57.625Z,36.22
2023-04-10T06:20:04.672Z,35.92
2023-04-10T06:25:08.141Z,37.15
2023-04-10T06:30:12.735Z,42.92
2023-04-10T06:35:15.817Z,38.97
2023-04-10T06:40:18.820Z,40.17
2023-04-10T06:45:23.271Z,38.78
2023-04-10T06:50:26.359Z,38.40
2023-04-10T06:55:29.413Z,41.53
2023-04-10T07:00:33.774Z,41.72
2023-04-10T07:05:36.727Z,37.75
2023-04-10T07:10:39.635Z,39.75
2023-04-10T07:15:43.834Z,36.95
2023-04-10T07:20:46.832Z,37.42
2023-04-10T07:25:49.761Z,37.70
2023-04-10T07:30:57.073Z,39.55
2023-04-10T07:36:00.003Z,38.88
2023-04-10T07:41:09.742Z,37.78
2023-04-10T07:46:13.992Z,37.95
2023-04-10T07:51:17.412Z,37.53
2023-04-10T07:56:21.717Z,38.05
2023-04-10T08:01:26.123Z,38.42
2023-04-10T08:06:29.089Z,38.65
2023-04-10T08:11:35.295Z,37.80
2023-04-10T08:16:41.143Z,38.47
2023-04-10T08:21:45.143Z,38.42
2023-04-10T08:26:48.363Z,39.08
2023-04-10T08:31:52.563Z,38.22
2023-04-10T08:36:55.513Z,39.08
2023-04-10T08:42:04.752Z,38.95
2023-04-10T08:47:09.961Z,38.40
2023-04-10T08:52:22.461Z,38.22
2023-04-10T08:57:27.320Z,38.55
2023-04-10T09:02:31.866Z,38.50
2023-04-10T09:07:34.962Z,38.90
2023-04-10T09:12:48.123Z,37.92
2023-04-10T09:18:00.208Z,39.15
2023-04-10T09:23:21.383Z,38.95
2023-04-10T09:28:24.250Z,38.53
2023-04-10T09:33:30.173Z,37.17
2023-04-10T09:38:33.126Z,38.13
2023-04-10T09:43:36.181Z,37.78
2023-04-10T09:48:56.787Z,38.42
2023-04-10T09:53:59.714Z,37.72
2023-04-10T09:59:04.750Z,37.42
2023-04-10T10:04:11.123Z,37.70
2023-04-10T10:09:14.654Z,36.17
2023-04-10T10:14:21.525Z,36.53
2023-04-10T10:19:31.503Z,36.30
2023-04-10T10:24:35.233Z,36.45
2023-04-10T10:29:39.689Z,37.45
2023-04-10T10:34:45.807Z,37.17
2023-04-10T10:39:57.360Z,36.83
2023-04-10T10:45:10.726Z,36.92
2023-04-10T10:50:15.003Z,37.58
2023-04-10T10:55:36.958Z,36.28
2023-04-10T11:01:11.160Z,37.17
2023-04-10T11:06:19.195Z,36.47
2023-04-10T11:11:23.980Z,36.75
2023-04-10T11:16:44.230Z,36.63
2023-04-10T11:22:08.924Z,36.75
2023-04-10T11:27:41.974Z,36.83
2023-04-10T11:32:45.928Z,36.75
2023-04-10T11:37:50.319Z,37.13
2023-04-10T11:42:53.388Z,37.05
2023-04-10T11:47:56.993Z,37.70
2023-04-10T11:53:01.330Z,37.00
2023-04-10T11:58:04.608Z,37.08
2023-04-10T12:03:11.066Z,36.65
2023-04-10T12:08:15.859Z,37.47
2023-04-10T12:13:26.693Z,36.75
2023-04-10T12:18:30.882Z,37.17
2023-04-10T12:23:38.124Z,37.33
2023-04-10T12:28:42.895Z,37.25
2023-04-10T12:33:46.838Z,37.47
2023-04-10T12:39:27.186Z,37.47
2023-04-10T12:44:30.612Z,37.80
2023-04-10T12:49:33.691Z,37.38
2023-04-10T12:54:38.583Z,37.20
2023-04-10T12:59:47.553Z,37.17
2023-04-10T13:04:51.513Z,37.47
2023-04-10T13:09:56.005Z,37.03
2023-04-10T13:14:59.830Z,36.72
2023-04-10T13:20:02.941Z,37.20
2023-04-10T13:25:22.627Z,36.78
2023-04-10T13:30:34.508Z,36.97
2023-04-10T13:35:37.479Z,37.30
2023-04-10T13:40:41.705Z,37.55
2023-04-10T13:45:44.573Z,37.60
2023-04-10T13:50:47.457Z,37.22
2023-04-10T13:55:51.649Z,36.90
2023-04-10T14:00:54.551Z,37.13
2023-04-10T14:05:57.418Z,37.80
2023-04-10T14:11:17.190Z,37.35
2023-04-10T14:16:20.417Z,37.10
2023-04-10T14:21:23.425Z,37.42
2023-04-10T14:26:27.849Z,37.03
2023-04-10T14:31:33.018Z,37.72
2023-04-10T14:36:36.081Z,37.50
2023-04-10T14:41:40.504Z,37.10
2023-04-10T14:46:43.361Z,37.30
2023-04-10T14:51:48.409Z,37.45
2023-04-10T14:56:52.733Z,37.75
2023-04-10T15:01:55.710Z,37.50
2023-04-10T15:06:58.639Z,37.58
2023-04-10T15:12:05.351Z,37.25
2023-04-10T15:17:08.395Z,37.78
2023-04-10T15:22:11.445Z,38.08
2023-04-10T15:27:15.820Z,37.75
2023-04-10T15:32:18.768Z,38.10
2023-04-10T15:37:25.310Z,37.50
2023-04-10T15:42:29.599Z,38.28
2023-04-10T15:47:32.622Z,37.55
2023-04-10T15:52:35.679Z,38.05
2023-04-10T15:57:39.896Z,37.50
2023-04-10T16:02:46.166Z,37.45
2023-04-10T16:07:49.216Z,38.90
2023-04-10T16:12:56.325Z,38.22
2023-04-10T16:17:59.430Z,38.33
2023-04-10T16:23:04.590Z,38.22
2023-04-10T16:28:12.434Z,37.40
2023-04-10T16:33:15.615Z,37.85
2023-04-10T16:38:19.175Z,37.80
2023-04-10T16:43:24.832Z,37.15
2023-04-10T16:49:07.634Z,37.38
2023-04-10T16:54:20.415Z,37.42
2023-04-10T16:59:25.119Z,36.65
2023-04-10T17:04:37.528Z,37.28
2023-04-10T17:09:40.569Z,37.33
2023-04-10T17:14:45.203Z,36.80
2023-04-10T17:19:48.510Z,36.65
2023-04-10T17:24:53.966Z,36.72
2023-04-10T17:29:58.552Z,36.75
2023-04-10T17:35:01.694Z,36.58
2023-04-10T17:40:42.236Z,36.85
2023-04-10T17:45:46.758Z,36.55
2023-04-10T17:50:51.723Z,36.53
2023-04-10T17:55:54.891Z,36.90
2023-04-10T18:00:59.258Z,36.90
2023-04-10T18:06:02.385Z,37.00
2023-04-10T18:11:05.656Z,37.30
2023-04-10T18:16:11.879Z,37.97
2023-04-10T18:21:14.866Z,37.83
2023-04-10T18:26:20.745Z,36.90
2023-04-10T18:31:25.326Z,36.67
2023-04-10T18:36:28.378Z,36.33
2023-04-10T18:41:31.657Z,36.60
2023-04-10T18:46:36.055Z,36.28
2023-04-10T18:51:40.382Z,36.88
2023-04-10T18:56:43.806Z,37.00
2023-04-10T19:01:48.334Z,36.83
2023-04-10T19:06:51.842Z,36.60
2023-04-10T19:11:55.087Z,36.67
2023-04-10T19:17:01.308Z,36.45
2023-04-10T19:22:04.348Z,36.58
2023-04-10T19:27:07.397Z,36.38
2023-04-10T19:32:11.744Z,36.72
2023-04-10T19:37:37.744Z,36.35
2023-04-10T19:42:41.090Z,36.10
2023-04-10T19:47:45.627Z,36.70
2023-04-10T19:52:48.626Z,36.33
2023-04-10T19:57:51.928Z,36.85
2023-04-10T20:02:56.518Z,36.33
2023-04-10T20:07:59.786Z,36.10
2023-04-10T20:13:02.808Z,36.40
2023-04-10T20:18:07.269Z,36.60
2023-04-10T20:23:10.420Z,37.45
2023-04-10T20:28:13.281Z,36.00
2023-04-10T20:33:17.514Z,35.97
2023-04-10T20:38:20.423Z,35.95
2023-04-10T20:43:23.327Z,36.03
2023-04-10T20:48:27.547Z,36.17
2023-04-10T20:53:30.634Z,36.13
2023-04-10T20:58:33.517Z,36.08
2023-04-10T21:03:37.876Z,36.80
2023-04-10T21:08:40.990Z,35.90
2023-04-10T21:13:43.840Z,36.13
2023-04-10T21:18:48.389Z,36.42
2023-04-10T21:23:51.352Z,35.83
2023-04-10T21:28:54.409Z,35.92
2023-04-10T21:33:58.746Z,35.75
2023-04-10T21:39:01.666Z,36.58
2023-04-10T21:44:04.638Z,36.05
2023-04-10T21:49:08.850Z,35.40
2023-04-10T21:54:11.714Z,35.63
2023-04-10T21:59:14.574Z,36.03
2023-04-10T22:04:18.979Z,35.83
2023-04-10T22:09:22.582Z,35.78
2023-04-10T22:14:26.569Z,35.40
2023-04-10T22:19:30.766Z,35.83
2023-04-10T22:24:35.244Z,35.60
2023-04-10T22:29:38.263Z,35.55
2023-04-10T22:34:42.478Z,35.25
2023-04-10T22:39:45.361Z,35.58
2023-04-10T22:44:48.242Z,36.10
2023-04-10T22:49:54.506Z,35.40
2023-04-10T22:54:58.512Z,35.85
2023-04-10T23:00:01.452Z,35.67
2023-04-10T23:05:06.743Z,36.00
2023-04-10T23:10:10.278Z,35.55
2023-04-10T23:15:13.713Z,35.80
2023-04-10T23:20:18.317Z,35.55
2023-04-10T23:25:21.435Z,35.67
2023-04-10T23:30:24.542Z,35.97
2023-04-10T23:35:28.949Z,35.58
2023-04-10T23:40:31.845Z,36.05
2023-04-10T23:45:34.711Z,35.55
2023-04-10T23:50:38.969Z,35.63
2023-04-10T23:55:42.122Z,35.75
